Time;durP1;ratioP1;P1;durP2;ratioP2;P2;SDS_P1;SDS_P2;PMS_P1;PMS_P2;Temp;Humidity;BMP_temperature;BMP_pressure;BME280_temperature;BME280_humidity;BME280_pressure;Samples;Min_cycle;Max_cycle;Signal;HPM_P1;HPM_P2
2021/06/16 06:59:03;;;;;;;7.85;5.13;;;;;;;;;;10632527;27;20051;-82
2021/06/16 07:04:26;;;;;;;3.47;2.45;;;;;;;;;;10600431;28;20047;-85
2021/06/16 07:09:27;;;;;;;7.32;4.10;;;;;;;;;;10590995;28;20020;-84
2021/06/16 07:14:28;;;;;;;5.90;2.80;;;;;;;;;;10584333;28;20034;-83
2021/06/16 07:19:29;;;;;;;7.90;4.03;;;;;;;;;;10600388;28;20012;-81
2021/06/16 07:24:30;;;;;;;5.85;3.72;;;;;;;;;;10577803;28;20423;-81
2021/06/16 07:29:31;;;;;;;9.55;5.63;;;;;;;;;;10599851;28;20028;-81
2021/06/16 07:34:32;;;;;;;5.60;3.90;;;;;;;;;;10587717;28;20073;-82
2021/06/16 07:39:33;;;;;;;9.80;5.45;;;;;;;;;;10601442;28;20045;-81
2021/06/16 07:44:34;;;;;;;10.30;5.53;;;;;;;;;;10594913;28;20081;-82
2021/06/16 07:49:35;;;;;;;6.97;3.85;;;;;;;;;;10594749;28;20143;-81
2021/06/16 07:54:36;;;;;;;7.90;5.00;;;;;;;;;;10597389;28;20061;-83
2021/06/16 07:59:37;;;;;;;6.68;4.45;;;;;;;;;;10594245;28;20052;-81
2021/06/16 08:04:40;;;;;;;6.70;4.07;;;;;;;;;;10599866;28;20028;-82
2021/06/16 08:09:42;;;;;;;9.45;4.90;;;;;;;;;;10598058;28;20026;-81
2021/06/16 08:14:44;;;;;;;6.65;3.65;;;;;;;;;;10595011;28;20023;-83
2021/06/16 08:19:45;;;;;;;5.15;3.80;;;;;;;;;;10595108;28;20057;-82
2021/06/16 08:24:50;;;;;;;5.43;3.80;;;;;;;;;;10595184;28;20091;-82
2021/06/16 08:29:51;;;;;;;5.15;3.83;;;;;;;;;;10575762;28;20031;-82
2021/06/16 08:34:52;;;;;;;6.53;3.97;;;;;;;;;;10576894;28;20028;-83
2021/06/16 08:39:53;;;;;;;7.20;4.00;;;;;;;;;;10593136;28;20023;-82
2021/06/16 08:44:55;;;;;;;8.40;4.25;;;;;;;;;;10593874;28;20024;-84
2021/06/16 08:49:56;;;;;;;8.77;4.13;;;;;;;;;;10593018;28;20034;-82
2021/06/16 08:54:57;;;;;;;4.88;4.03;;;;;;;;;;10595239;28;20057;-81
2021/06/16 08:59:58;;;;;;;6.80;3.58;;;;;;;;;;10595984;28;20023;-82
2021/06/16 09:04:59;;;;;;;4.78;3.50;;;;;;;;;;10577640;28;20068;-82
2021/06/16 09:10:17;;;;;;;6.00;4.18;;;;;;;;;;10578633;28;20500;-82
2021/06/16 09:15:20;;;;;;;7.07;4.47;;;;;;;;;;10593459;28;20016;-82
2021/06/16 09:20:24;;;;;;;6.55;4.07;;;;;;;;;;10593907;28;20015;-81
2021/06/16 09:25:25;;;;;;;7.30;4.13;;;;;;;;;;10593767;28;20032;-81
2021/06/16 09:30:26;;;;;;;7.18;4.10;;;;;;;;;;10574858;28;20023;-82
2021/06/16 09:35:28;;;;;;;6.80;4.30;;;;;;;;;;10592967;28;20019;-82
2021/06/16 09:40:31;;;;;;;5.75;3.90;;;;;;;;;;10597955;28;20019;-81
2021/06/16 09:45:32;;;;;;;8.02;4.63;;;;;;;;;;10601098;28;20032;-81
2021/06/16 09:50:33;;;;;;;5.95;3.67;;;;;;;;;;10593020;28;20024;-82
2021/06/16 09:55:36;;;;;;;5.82;4.25;;;;;;;;;;10580084;28;20027;-83
2021/06/16 10:00:39;;;;;;;7.53;5.13;;;;;;;;;;10598399;28;20019;-83
2021/06/16 10:05:58;;;;;;;7.40;4.43;;;;;;;;;;10592468;28;20028;-83
2021/06/16 10:11:00;;;;;;;9.27;4.80;;;;;;;;;;10577394;28;20087;-83
2021/06/16 10:16:01;;;;;;;6.70;4.38;;;;;;;;;;10592894;28;20016;-82
2021/06/16 10:21:02;;;;;;;8.25;4.40;;;;;;;;;;10591181;28;20031;-81
2021/06/16 10:26:06;;;;;;;7.18;4.38;;;;;;;;;;10575082;28;20393;-80
2021/06/16 10:31:08;;;;;;;6.72;4.45;;;;;;;;;;10596494;28;20143;-84
2021/06/16 10:36:11;;;;;;;5.70;4.45;;;;;;;;;;10585360;28;20083;-80
2021/06/16 10:41:12;;;;;;;7.10;4.60;;;;;;;;;;10611550;28;20028;-83
2021/06/16 10:46:15;;;;;;;9.23;6.82;;;;;;;;;;10600631;28;20118;-83
2021/06/16 10:51:30;;;;;;;5.68;5.15;;;;;;;;;;10599670;28;20031;-81
2021/06/16 10:56:46;;;;;;;6.45;5.00;;;;;;;;;;10598595;28;20501;-83
2021/06/16 11:01:49;;;;;;;6.28;4.70;;;;;;;;;;10599296;28;20445;-82
2021/06/16 11:06:50;;;;;;;5.75;5.15;;;;;;;;;;10614742;28;20016;-82
2021/06/16 11:11:54;;;;;;;8.10;5.25;;;;;;;;;;10621671;27;20034;-82
2021/06/16 11:16:55;;;;;;;5.80;5.20;;;;;;;;;;10634214;27;20028;-84
2021/06/16 11:21:58;;;;;;;6.38;4.97;;;;;;;;;;10634966;27;20089;-83
2021/06/16 11:26:59;;;;;;;9.18;5.65;;;;;;;;;;10625669;27;20019;-84
2021/06/16 11:32:10;;;;;;;7.38;6.05;;;;;;;;;;10613553;28;20024;-84
2021/06/16 11:37:11;;;;;;;9.15;5.78;;;;;;;;;;10616054;28;20019;-83
2021/06/16 11:42:13;;;;;;;6.43;5.50;;;;;;;;;;10614941;28;20469;-84
2021/06/16 11:47:13;;;;;;;7.70;5.80;;;;;;;;;;10613598;28;20023;-83
2021/06/16 11:52:19;;;;;;;7.00;5.65;;;;;;;;;;10611949;28;20050;-82
2021/06/16 11:57:20;;;;;;;9.65;6.57;;;;;;;;;;10608473;28;20098;-82
2021/06/16 12:02:23;;;;;;;8.85;6.40;;;;;;;;;;10612900;28;20084;-83
2021/06/16 12:07:28;;;;;;;9.40;6.00;;;;;;;;;;10610485;28;20076;-82
2021/06/16 12:12:43;;;;;;;8.18;6.45;;;;;;;;;;10597015;28;20019;-83
2021/06/16 12:18:04;;;;;;;6.22;5.72;;;;;;;;;;10611862;28;20028;-83
2021/06/16 12:23:20;;;;;;;8.20;6.40;;;;;;;;;;10610329;28;20028;-84
2021/06/16 12:28:21;;;;;;;7.53;6.82;;;;;;;;;;10591543;28;20023;-84
2021/06/16 12:33:35;;;;;;;7.35;6.55;;;;;;;;;;10609355;28;20024;-83
2021/06/16 12:38:40;;;;;;;7.65;6.55;;;;;;;;;;10609865;28;20047;-82
2021/06/16 12:43:41;;;;;;;8.13;6.55;;;;;;;;;;10607246;28;20031;-84
2021/06/16 12:48:42;;;;;;;8.80;6.63;;;;;;;;;;10611586;28;20027;-83
2021/06/16 12:53:44;;;;;;;8.05;6.10;;;;;;;;;;10610313;28;20032;-84
2021/06/16 12:58:46;;;;;;;8.48;6.45;;;;;;;;;;10611374;28;20023;-83
2021/06/16 13:03:48;;;;;;;7.15;5.60;;;;;;;;;;10616433;28;20052;-83
2021/06/16 13:08:51;;;;;;;7.07;6.38;;;;;;;;;;10613764;28;20027;-82
2021/06/16 13:14:11;;;;;;;9.50;7.05;;;;;;;;;;10612585;28;20032;-85
2021/06/16 13:19:12;;;;;;;6.90;5.47;;;;;;;;;;10590094;28;20102;-84
2021/06/16 13:24:13;;;;;;;5.32;4.78;;;;;;;;;;10607023;28;20020;-83
2021/06/16 13:29:15;;;;;;;5.90;5.20;;;;;;;;;;10589177;28;20028;-85
2021/06/16 13:34:17;;;;;;;6.32;4.90;;;;;;;;;;10586740;28;20028;-84
2021/06/16 13:39:18;;;;;;;5.55;4.50;;;;;;;;;;10605635;28;20045;-86
2021/06/16 13:44:19;;;;;;;5.50;4.95;;;;;;;;;;10606523;28;20382;-84
2021/06/16 13:49:20;;;;;;;5.10;4.60;;;;;;;;;;10606336;28;20067;-83
2021/06/16 13:54:21;;;;;;;5.70;4.60;;;;;;;;;;10605655;28;20028;-83
2021/06/16 13:59:22;;;;;;;4.93;4.53;;;;;;;;;;10587918;28;20024;-84
2021/06/16 14:04:23;;;;;;;5.35;4.32;;;;;;;;;;10586081;28;20024;-83
2021/06/16 14:09:24;;;;;;;7.18;5.57;;;;;;;;;;10586267;28;20031;-84
2021/06/16 14:14:25;;;;;;;6.10;4.68;;;;;;;;;;10591052;28;20024;-85
2021/06/16 14:19:26;;;;;;;8.52;6.28;;;;;;;;;;10593809;28;20024;-83
2021/06/16 14:24:27;;;;;;;7.72;6.82;;;;;;;;;;10613270;28;20543;-84
2021/06/16 14:29:28;;;;;;;8.40;4.72;;;;;;;;;;10610517;28;20043;-84
2021/06/16 14:34:30;;;;;;;4.35;3.95;;;;;;;;;;10593904;28;20035;-84
2021/06/16 14:39:31;;;;;;;5.43;4.40;;;;;;;;;;10595915;28;20031;-84
2021/06/16 14:44:32;;;;;;;6.25;5.20;;;;;;;;;;10617249;27;20027;-82
2021/06/16 14:49:33;;;;;;;5.03;4.63;;;;;;;;;;10618054;27;20069;-83
2021/06/16 14:54:34;;;;;;;6.40;4.18;;;;;;;;;;10636536;27;20039;-83
2021/06/16 14:59:35;;;;;;;5.03;4.47;;;;;;;;;;10593939;27;20038;-84
2021/06/16 15:04:36;;;;;;;7.55;4.70;;;;;;;;;;10594141;28;20027;-83
2021/06/16 15:09:38;;;;;;;5.25;4.75;;;;;;;;;;10597928;28;20030;-85
2021/06/16 15:14:40;;;;;;;7.85;4.43;;;;;;;;;;10613474;28;20104;-82
2021/06/16 15:19:44;;;;;;;5.88;4.43;;;;;;;;;;10610163;28;20024;-83
2021/06/16 15:24:45;;;;;;;5.93;4.70;;;;;;;;;;10608856;28;20393;-83
2021/06/16 15:29:46;;;;;;;4.63;4.22;;;;;;;;;;10611180;28;20024;-84
2021/06/16 15:34:48;;;;;;;7.03;6.32;;;;;;;;;;10613121;28;20023;-84
2021/06/16 15:39:49;;;;;;;7.55;5.78;;;;;;;;;;10617730;28;20024;-83
2021/06/16 15:44:50;;;;;;;7.43;4.85;;;;;;;;;;10618131;28;20020;-83
2021/06/16 15:49:52;;;;;;;6.32;4.85;;;;;;;;;;10610545;28;20076;-83
2021/06/16 15:54:53;;;;;;;7.30;4.50;;;;;;;;;;10610962;28;20031;-82
2021/06/16 15:59:54;;;;;;;5.90;5.13;;;;;;;;;;10612740;28;20493;-82
2021/06/16 16:04:55;;;;;;;5.38;4.88;;;;;;;;;;10608478;28;20031;-82
2021/06/16 16:09:56;;;;;;;5.70;4.55;;;;;;;;;;10608579;28;20084;-86
2021/06/16 16:14:57;;;;;;;5.22;4.72;;;;;;;;;;10605994;28;20024;-82
2021/06/16 16:19:58;;;;;;;6.25;5.00;;;;;;;;;;10607766;28;20415;-82
2021/06/16 16:24:59;;;;;;;6.20;5.60;;;;;;;;;;10613517;28;20035;-82
2021/06/16 16:30:00;;;;;;;7.90;4.90;;;;;;;;;;10601875;28;20424;-86
2021/06/16 16:35:01;;;;;;;5.88;4.82;;;;;;;;;;10600985;28;20023;-85
2021/06/16 16:40:05;;;;;;;5.25;4.75;;;;;;;;;;10597317;28;20020;-87
2021/06/16 16:45:22;;;;;;;6.35;4.85;;;;;;;;;;10593864;28;20028;-87
2021/06/16 16:50:24;;;;;;;7.88;5.00;;;;;;;;;;10596004;28;20091;-86
2021/06/16 16:55:25;;;;;;;8.38;4.80;;;;;;;;;;10576337;28;20028;-86
2021/06/16 17:00:26;;;;;;;5.50;4.68;;;;;;;;;;10575837;28;20035;-86
2021/06/16 17:05:34;;;;;;;6.28;5.10;;;;;;;;;;10557635;22;20052;-87
2021/06/16 19:32:34;;;;;;;9.73;6.40;;;;;;;;;;10553310;22;20045;-87
2021/06/16 19:43:47;;;;;;;6.43;5.65;;;;;;;;;;10432882;28;20045;-86
2021/06/16 19:48:55;;;;;;;6.03;5.35;;;;;;;;;;10468935;28;20067;-86
2021/06/16 19:53:59;;;;;;;12.02;8.73;;;;;;;;;;10468424;28;20079;-86
2021/06/16 19:59:02;;;;;;;10.38;9.38;;;;;;;;;;10473346;28;20101;-85
2021/06/16 20:04:04;;;;;;;7.88;6.90;;;;;;;;;;10483424;28;20043;-87
2021/06/16 20:09:05;;;;;;;8.50;7.20;;;;;;;;;;10493046;28;20041;-86
2021/06/16 20:14:06;;;;;;;9.07;8.18;;;;;;;;;;10497705;28;20037;-86
2021/06/16 20:19:07;;;;;;;9.13;7.90;;;;;;;;;;10487832;28;20199;-86
